sensor_id;sensor_type;location;lat;lon;timestamp;P1;durP1;ratioP1;P2;durP2;ratioP2
43905;SDS011;29564;46.622;13.818;2024-01-30T00:00:47;1.60;;;1.17;;
43905;SDS011;29564;46.622;13.818;2024-01-30T00:01:49;3.65;;;1.88;;
43905;SDS011;29564;46.622;13.818;2024-01-30T00:02:50;3.70;;;1.55;;
43905;SDS011;29564;46.622;13.818;2024-01-30T00:03:52;3.63;;;1.55;;
43905;SDS011;29564;46.622;13.818;2024-01-30T00:04:54;1.67;;;1.58;;
43905;SDS011;29564;46.622;13.818;2024-01-30T00:05:56;1.73;;;1.48;;
43905;SDS011;29564;46.622;13.818;2024-01-30T00:06:58;1.75;;;1.45;;
43905;SDS011;29564;46.622;13.818;2024-01-30T00:08:00;2.20;;;1.88;;
43905;SDS011;29564;46.622;13.818;2024-01-30T00:09:05;3.50;;;1.40;;
43905;SDS011;29564;46.622;13.818;2024-01-30T00:10:07;1.40;;;1.13;;
43905;SDS011;29564;46.622;13.818;2024-01-30T00:11:08;2.15;;;1.30;;
43905;SDS011;29564;46.622;13.818;2024-01-30T00:13:15;2.25;;;0.95;;
43905;SDS011;29564;46.622;13.818;2024-01-30T00:14:19;2.90;;;1.88;;
43905;SDS011;29564;46.622;13.818;2024-01-30T00:15:21;2.00;;;1.40;;
43905;SDS011;29564;46.622;13.818;2024-01-30T00:16:23;1.00;;;1.00;;
43905;SDS011;29564;46.622;13.818;2024-01-30T00:17:25;2.10;;;1.23;;
43905;SDS011;29564;46.622;13.818;2024-01-30T00:18:27;2.00;;;0.85;;
43905;SDS011;29564;46.622;13.818;2024-01-30T00:19:29;1.05;;;0.85;;
43905;SDS011;29564;46.622;13.818;2024-01-30T00:20:31;1.15;;;1.05;;
43905;SDS011;29564;46.622;13.818;2024-01-30T00:21:33;2.40;;;1.27;;
43905;SDS011;29564;46.622;13.818;2024-01-30T00:22:35;2.50;;;1.35;;
43905;SDS011;29564;46.622;13.818;2024-01-30T00:23:37;2.20;;;1.25;;
43905;SDS011;29564;46.622;13.818;2024-01-30T00:24:39;3.20;;;1.35;;
43905;SDS011;29564;46.622;13.818;2024-01-30T00:25:44;1.40;;;1.02;;
43905;SDS011;29564;46.622;13.818;2024-01-30T00:26:45;2.65;;;1.50;;
43905;SDS011;29564;46.622;13.818;2024-01-30T00:27:47;2.88;;;0.95;;
43905;SDS011;29564;46.622;13.818;2024-01-30T00:28:49;4.30;;;1.40;;
43905;SDS011;29564;46.622;13.818;2024-01-30T00:29:54;3.13;;;1.55;;
43905;SDS011;29564;46.622;13.818;2024-01-30T00:30:56;6.53;;;1.35;;
43905;SDS011;29564;46.622;13.818;2024-01-30T00:31:58;1.63;;;0.98;;
43905;SDS011;29564;46.622;13.818;2024-01-30T00:33:00;2.22;;;1.00;;
43905;SDS011;29564;46.622;13.818;2024-01-30T00:34:04;1.38;;;0.95;;
43905;SDS011;29564;46.622;13.818;2024-01-30T00:35:06;1.65;;;1.10;;
43905;SDS011;29564;46.622;13.818;2024-01-30T00:36:10;1.35;;;1.15;;
43905;SDS011;29564;46.622;13.818;2024-01-30T00:37:12;2.05;;;1.52;;
43905;SDS011;29564;46.622;13.818;2024-01-30T00:38:14;1.30;;;1.10;;
43905;SDS011;29564;46.622;13.818;2024-01-30T00:39:16;4.00;;;1.55;;
43905;SDS011;29564;46.622;13.818;2024-01-30T00:40:20;0.52;;;0.52;;
43905;SDS011;29564;46.622;13.818;2024-01-30T00:41:22;3.00;;;1.42;;
43905;SDS011;29564;46.622;13.818;2024-01-30T00:42:24;1.45;;;0.85;;
43905;SDS011;29564;46.622;13.818;2024-01-30T00:43:26;3.55;;;1.63;;
43905;SDS011;29564;46.622;13.818;2024-01-30T00:44:28;2.15;;;1.60;;
43905;SDS011;29564;46.622;13.818;2024-01-30T00:45:32;2.60;;;1.27;;
43905;SDS011;29564;46.622;13.818;2024-01-30T00:46:33;1.17;;;1.08;;
43905;SDS011;29564;46.622;13.818;2024-01-30T00:47:35;2.08;;;1.23;;
43905;SDS011;29564;46.622;13.818;2024-01-30T00:48:37;1.95;;;1.08;;
43905;SDS011;29564;46.622;13.818;2024-01-30T00:49:39;2.33;;;1.73;;
43905;SDS011;29564;46.622;13.818;2024-01-30T00:50:41;3.55;;;2.00;;
43905;SDS011;29564;46.622;13.818;2024-01-30T00:51:42;2.15;;;1.00;;
43905;SDS011;29564;46.622;13.818;2024-01-30T00:52:44;1.65;;;1.02;;
43905;SDS011;29564;46.622;13.818;2024-01-30T00:53:46;1.55;;;0.88;;
43905;SDS011;29564;46.622;13.818;2024-01-30T00:54:48;2.42;;;1.25;;
43905;SDS011;29564;46.622;13.818;2024-01-30T00:55:50;3.33;;;1.25;;
43905;SDS011;29564;46.622;13.818;2024-01-30T00:58:04;1.88;;;1.05;;
43905;SDS011;29564;46.622;13.818;2024-01-30T00:59:06;1.63;;;1.50;;
43905;SDS011;29564;46.622;13.818;2024-01-30T01:00:07;3.05;;;0.95;;
43905;SDS011;29564;46.622;13.818;2024-01-30T01:01:10;2.03;;;0.93;;
43905;SDS011;29564;46.622;13.818;2024-01-30T01:02:12;1.45;;;1.15;;
43905;SDS011;29564;46.622;13.818;2024-01-30T01:03:15;0.82;;;0.77;;
43905;SDS011;29564;46.622;13.818;2024-01-30T01:04:18;1.85;;;1.25;;
43905;SDS011;29564;46.622;13.818;2024-01-30T01:05:22;1.50;;;1.17;;
43905;SDS011;29564;46.622;13.818;2024-01-30T01:06:24;2.08;;;1.60;;
43905;SDS011;29564;46.622;13.818;2024-01-30T01:07:25;2.45;;;1.42;;
43905;SDS011;29564;46.622;13.818;2024-01-30T01:08:27;0.50;;;0.50;;
43905;SDS011;29564;46.622;13.818;2024-01-30T01:09:29;0.90;;;0.65;;
43905;SDS011;29564;46.622;13.818;2024-01-30T01:10:31;1.60;;;1.20;;
43905;SDS011;29564;46.622;13.818;2024-01-30T01:11:33;1.75;;;1.20;;
43905;SDS011;29564;46.622;13.818;2024-01-30T01:12:35;1.20;;;1.10;;
43905;SDS011;29564;46.622;13.818;2024-01-30T01:14:41;1.02;;;0.95;;
43905;SDS011;29564;46.622;13.818;2024-01-30T01:15:43;1.20;;;0.90;;
43905;SDS011;29564;46.622;13.818;2024-01-30T01:16:45;0.98;;;0.85;;
43905;SDS011;29564;46.622;13.818;2024-01-30T01:17:47;1.17;;;0.95;;
43905;SDS011;29564;46.622;13.818;2024-01-30T01:18:49;1.23;;;1.13;;
43905;SDS011;29564;46.622;13.818;2024-01-30T01:19:51;2.03;;;0.68;;
43905;SDS011;29564;46.622;13.818;2024-01-30T01:20:53;1.13;;;1.02;;
43905;SDS011;29564;46.622;13.818;2024-01-30T01:21:55;1.10;;;1.00;;
43905;SDS011;29564;46.622;13.818;2024-01-30T01:22:57;1.45;;;1.30;;
43905;SDS011;29564;46.622;13.818;2024-01-30T01:23:58;0.93;;;0.93;;
43905;SDS011;29564;46.622;13.818;2024-01-30T01:25:00;0.95;;;0.93;;
43905;SDS011;29564;46.622;13.818;2024-01-30T01:26:02;1.10;;;1.00;;
43905;SDS011;29564;46.622;13.818;2024-01-30T01:27:04;2.22;;;1.00;;
43905;SDS011;29564;46.622;13.818;2024-01-30T01:28:09;1.20;;;0.82;;
43905;SDS011;29564;46.622;13.818;2024-01-30T01:30:16;1.35;;;1.35;;
43905;SDS011;29564;46.622;13.818;2024-01-30T01:31:22;0.75;;;0.75;;
43905;SDS011;29564;46.622;13.818;2024-01-30T01:32:25;1.23;;;1.08;;
43905;SDS011;29564;46.622;13.818;2024-01-30T01:33:27;1.98;;;0.80;;
43905;SDS011;29564;46.622;13.818;2024-01-30T01:34:29;1.52;;;1.05;;
43905;SDS011;29564;46.622;13.818;2024-01-30T01:35:31;1.60;;;1.50;;
43905;SDS011;29564;46.622;13.818;2024-01-30T01:36:33;2.92;;;1.05;;
43905;SDS011;29564;46.622;13.818;2024-01-30T01:37:35;1.65;;;1.02;;
43905;SDS011;29564;46.622;13.818;2024-01-30T01:38:39;4.68;;;1.83;;
43905;SDS011;29564;46.622;13.818;2024-01-30T01:39:43;1.00;;;0.95;;
43905;SDS011;29564;46.622;13.818;2024-01-30T01:40:45;0.98;;;0.98;;
43905;SDS011;29564;46.622;13.818;2024-01-30T01:41:50;1.63;;;0.75;;
43905;SDS011;29564;46.622;13.818;2024-01-30T01:42:52;2.33;;;1.25;;
43905;SDS011;29564;46.622;13.818;2024-01-30T01:43:54;2.53;;;1.02;;
43905;SDS011;29564;46.622;13.818;2024-01-30T01:44:56;3.55;;;1.25;;
43905;SDS011;29564;46.622;13.818;2024-01-30T01:46:00;0.75;;;0.75;;
43905;SDS011;29564;46.622;13.818;2024-01-30T01:47:02;2.13;;;1.42;;
43905;SDS011;29564;46.622;13.818;2024-01-30T01:48:04;1.88;;;1.27;;
43905;SDS011;29564;46.622;13.818;2024-01-30T01:49:06;1.00;;;0.82;;
43905;SDS011;29564;46.622;13.818;2024-01-30T01:53:40;1.30;;;0.65;;
43905;SDS011;29564;46.622;13.818;2024-01-30T01:54:43;1.75;;;1.13;;
43905;SDS011;29564;46.622;13.818;2024-01-30T01:55:45;1.42;;;1.33;;
43905;SDS011;29564;46.622;13.818;2024-01-30T01:56:47;2.28;;;1.45;;
43905;SDS011;29564;46.622;13.818;2024-01-30T01:57:49;1.77;;;1.40;;
43905;SDS011;29564;46.622;13.818;2024-01-30T01:58:51;1.90;;;1.27;;
43905;SDS011;29564;46.622;13.818;2024-01-30T01:59:53;4.10;;;1.48;;
43905;SDS011;29564;46.622;13.818;2024-01-30T02:00:58;3.33;;;1.48;;
43905;SDS011;29564;46.622;13.818;2024-01-30T02:02:00;1.15;;;1.05;;
43905;SDS011;29564;46.622;13.818;2024-01-30T02:03:03;3.88;;;2.38;;
43905;SDS011;29564;46.622;13.818;2024-01-30T02:04:06;1.38;;;1.27;;
43905;SDS011;29564;46.622;13.818;2024-01-30T02:08:42;1.88;;;1.70;;
43905;SDS011;29564;46.622;13.818;2024-01-30T02:09:44;3.50;;;1.40;;
43905;SDS011;29564;46.622;13.818;2024-01-30T02:10:46;0.77;;;0.77;;
43905;SDS011;29564;46.622;13.818;2024-01-30T02:11:48;2.75;;;1.25;;
43905;SDS011;29564;46.622;13.818;2024-01-30T02:12:53;2.95;;;1.13;;
43905;SDS011;29564;46.622;13.818;2024-01-30T02:13:55;4.47;;;2.30;;
43905;SDS011;29564;46.622;13.818;2024-01-30T02:14:56;0.80;;;0.73;;
43905;SDS011;29564;46.622;13.818;2024-01-30T02:15:58;2.25;;;1.27;;
43905;SDS011;29564;46.622;13.818;2024-01-30T02:17:00;1.77;;;1.27;;
43905;SDS011;29564;46.622;13.818;2024-01-30T02:18:02;1.50;;;1.15;;
43905;SDS011;29564;46.622;13.818;2024-01-30T02:19:04;3.42;;;1.75;;
43905;SDS011;29564;46.622;13.818;2024-01-30T02:20:06;1.73;;;1.15;;
43905;SDS011;29564;46.622;13.818;2024-01-30T02:21:08;2.28;;;1.17;;
43905;SDS011;29564;46.622;13.818;2024-01-30T02:22:11;1.35;;;1.25;;
43905;SDS011;29564;46.622;13.818;2024-01-30T02:23:13;1.33;;;0.98;;
43905;SDS011;29564;46.622;13.818;2024-01-30T02:24:16;1.52;;;1.42;;
43905;SDS011;29564;46.622;13.818;2024-01-30T02:25:18;4.05;;;1.80;;
43905;SDS011;29564;46.622;13.818;2024-01-30T02:26:20;1.77;;;1.38;;
43905;SDS011;29564;46.622;13.818;2024-01-30T02:27:22;4.32;;;1.40;;
43905;SDS011;29564;46.622;13.818;2024-01-30T02:28:24;2.72;;;1.58;;
43905;SDS011;29564;46.622;13.818;2024-01-30T02:29:26;1.10;;;1.00;;
43905;SDS011;29564;46.622;13.818;2024-01-30T02:30:28;3.00;;;2.10;;
43905;SDS011;29564;46.622;13.818;2024-01-30T02:31:29;2.08;;;1.60;;
43905;SDS011;29564;46.622;13.818;2024-01-30T02:32:31;3.80;;;1.33;;
43905;SDS011;29564;46.622;13.818;2024-01-30T02:33:33;2.13;;;1.73;;
43905;SDS011;29564;46.622;13.818;2024-01-30T02:34:35;5.32;;;1.65;;
43905;SDS011;29564;46.622;13.818;2024-01-30T02:35:37;2.53;;;1.55;;
43905;SDS011;29564;46.622;13.818;2024-01-30T02:36:42;2.22;;;1.77;;
43905;SDS011;29564;46.622;13.818;2024-01-30T02:37:44;1.55;;;1.38;;
43905;SDS011;29564;46.622;13.818;2024-01-30T02:38:46;2.13;;;1.75;;
43905;SDS011;29564;46.622;13.818;2024-01-30T02:39:48;6.95;;;2.35;;
43905;SDS011;29564;46.622;13.818;2024-01-30T02:41:54;1.08;;;1.05;;
43905;SDS011;29564;46.622;13.818;2024-01-30T02:42:56;7.70;;;1.52;;
43905;SDS011;29564;46.622;13.818;2024-01-30T02:43:58;2.90;;;2.25;;
43905;SDS011;29564;46.622;13.818;2024-01-30T02:45:00;2.80;;;1.85;;
43905;SDS011;29564;46.622;13.818;2024-01-30T02:46:02;5.53;;;1.83;;
43905;SDS011;29564;46.622;13.818;2024-01-30T02:47:04;1.13;;;1.08;;
43905;SDS011;29564;46.622;13.818;2024-01-30T02:48:06;2.67;;;2.45;;
43905;SDS011;29564;46.622;13.818;2024-01-30T02:50:12;2.80;;;1.75;;
43905;SDS011;29564;46.622;13.818;2024-01-30T02:51:16;1.75;;;1.33;;
43905;SDS011;29564;46.622;13.818;2024-01-30T02:52:20;2.05;;;1.85;;
43905;SDS011;29564;46.622;13.818;2024-01-30T02:53:22;2.10;;;1.38;;
43905;SDS011;29564;46.622;13.818;2024-01-30T02:54:26;1.63;;;1.52;;
43905;SDS011;29564;46.622;13.818;2024-01-30T02:55:28;2.22;;;1.40;;
43905;SDS011;29564;46.622;13.818;2024-01-30T02:56:30;4.90;;;1.63;;
43905;SDS011;29564;46.622;13.818;2024-01-30T02:57:32;2.75;;;0.98;;
43905;SDS011;29564;46.622;13.818;2024-01-30T02:58:35;1.48;;;1.20;;
43905;SDS011;29564;46.622;13.818;2024-01-30T02:59:37;4.05;;;1.67;;
43905;SDS011;29564;46.622;13.818;2024-01-30T03:00:39;5.80;;;1.83;;
43905;SDS011;29564;46.622;13.818;2024-01-30T03:01:44;1.63;;;1.52;;
43905;SDS011;29564;46.622;13.818;2024-01-30T03:02:47;1.52;;;1.35;;
43905;SDS011;29564;46.622;13.818;2024-01-30T03:03:49;4.00;;;1.40;;
43905;SDS011;29564;46.622;13.818;2024-01-30T03:04:52;1.85;;;1.33;;
43905;SDS011;29564;46.622;13.818;2024-01-30T03:05:54;2.13;;;1.40;;
43905;SDS011;29564;46.622;13.818;2024-01-30T03:06:56;2.47;;;1.45;;
43905;SDS011;29564;46.622;13.818;2024-01-30T03:07:58;1.52;;;0.95;;
43905;SDS011;29564;46.622;13.818;2024-01-30T03:09:00;3.42;;;1.33;;
43905;SDS011;29564;46.622;13.818;2024-01-30T03:10:03;3.75;;;1.73;;
43905;SDS011;29564;46.622;13.818;2024-01-30T03:11:05;5.45;;;2.63;;
43905;SDS011;29564;46.622;13.818;2024-01-30T03:12:07;4.22;;;1.38;;
43905;SDS011;29564;46.622;13.818;2024-01-30T03:13:09;5.53;;;2.03;;
43905;SDS011;29564;46.622;13.818;2024-01-30T03:14:11;1.70;;;0.90;;
43905;SDS011;29564;46.622;13.818;2024-01-30T03:15:13;3.40;;;2.03;;
43905;SDS011;29564;46.622;13.818;2024-01-30T03:16:15;3.17;;;1.45;;
43905;SDS011;29564;46.622;13.818;2024-01-30T03:17:17;4.22;;;2.08;;
43905;SDS011;29564;46.622;13.818;2024-01-30T03:18:19;5.28;;;1.90;;
43905;SDS011;29564;46.622;13.818;2024-01-30T03:19:20;3.80;;;2.20;;
43905;SDS011;29564;46.622;13.818;2024-01-30T03:20:22;2.15;;;1.00;;
43905;SDS011;29564;46.622;13.818;2024-01-30T03:21:24;5.35;;;1.38;;
43905;SDS011;29564;46.622;13.818;2024-01-30T03:22:26;4.82;;;2.75;;
43905;SDS011;29564;46.622;13.818;2024-01-30T03:23:28;2.00;;;1.77;;
43905;SDS011;29564;46.622;13.818;2024-01-30T03:24:30;2.45;;;1.15;;
43905;SDS011;29564;46.622;13.818;2024-01-30T03:25:32;3.53;;;1.95;;
43905;SDS011;29564;46.622;13.818;2024-01-30T03:26:34;1.70;;;1.40;;
43905;SDS011;29564;46.622;13.818;2024-01-30T03:27:36;34.38;;;11.80;;
43905;SDS011;29564;46.622;13.818;2024-01-30T03:28:37;50.92;;;18.00;;
43905;SDS011;29564;46.622;13.818;2024-01-30T03:29:39;44.75;;;15.88;;
43905;SDS011;29564;46.622;13.818;2024-01-30T03:30:41;14.38;;;7.25;;
43905;SDS011;29564;46.622;13.818;2024-01-30T03:31:43;14.20;;;6.28;;
43905;SDS011;29564;46.622;13.818;2024-01-30T03:32:45;26.92;;;8.75;;
43905;SDS011;29564;46.622;13.818;2024-01-30T03:33:47;13.07;;;5.38;;
43905;SDS011;29564;46.622;13.818;2024-01-30T03:34:49;4.63;;;1.73;;
43905;SDS011;29564;46.622;13.818;2024-01-30T03:35:51;8.15;;;2.30;;
43905;SDS011;29564;46.622;13.818;2024-01-30T03:36:52;2.25;;;1.90;;
43905;SDS011;29564;46.622;13.818;2024-01-30T03:37:54;2.67;;;2.28;;
43905;SDS011;29564;46.622;13.818;2024-01-30T03:38:56;7.00;;;2.63;;
43905;SDS011;29564;46.622;13.818;2024-01-30T03:39:58;6.88;;;2.70;;
43905;SDS011;29564;46.622;13.818;2024-01-30T03:41:00;5.57;;;2.55;;
43905;SDS011;29564;46.622;13.818;2024-01-30T03:42:02;3.55;;;2.75;;
43905;SDS011;29564;46.622;13.818;2024-01-30T03:43:04;6.68;;;2.63;;
43905;SDS011;29564;46.622;13.818;2024-01-30T03:44:06;2.20;;;1.83;;
43905;SDS011;29564;46.622;13.818;2024-01-30T03:45:08;1.55;;;1.30;;
43905;SDS011;29564;46.622;13.818;2024-01-30T03:46:11;1.27;;;0.85;;
43905;SDS011;29564;46.622;13.818;2024-01-30T03:47:13;4.55;;;2.60;;
43905;SDS011;29564;46.622;13.818;2024-01-30T03:48:15;2.75;;;1.80;;
43905;SDS011;29564;46.622;13.818;2024-01-30T03:49:17;2.05;;;1.05;;
43905;SDS011;29564;46.622;13.818;2024-01-30T03:50:19;2.17;;;1.98;;
43905;SDS011;29564;46.622;13.818;2024-01-30T03:51:20;3.13;;;2.10;;
43905;SDS011;29564;46.622;13.818;2024-01-30T03:52:22;3.28;;;1.70;;
43905;SDS011;29564;46.622;13.818;2024-01-30T03:53:24;2.38;;;1.38;;
43905;SDS011;29564;46.622;13.818;2024-01-30T03:54:26;3.92;;;0.82;;
43905;SDS011;29564;46.622;13.818;2024-01-30T03:55:28;2.55;;;1.02;;
43905;SDS011;29564;46.622;13.818;2024-01-30T03:56:30;2.03;;;1.35;;
43905;SDS011;29564;46.622;13.818;2024-01-30T03:57:31;1.58;;;0.80;;
43905;SDS011;29564;46.622;13.818;2024-01-30T03:58:33;1.30;;;1.15;;
43905;SDS011;29564;46.622;13.818;2024-01-30T03:59:35;1.33;;;1.25;;
43905;SDS011;29564;46.622;13.818;2024-01-30T04:00:37;7.15;;;1.13;;
43905;SDS011;29564;46.622;13.818;2024-01-30T04:01:39;1.55;;;0.88;;
43905;SDS011;29564;46.622;13.818;2024-01-30T04:02:41;0.95;;;0.65;;
43905;SDS011;29564;46.622;13.818;2024-01-30T04:03:42;2.78;;;2.03;;
43905;SDS011;29564;46.622;13.818;2024-01-30T04:04:45;5.88;;;1.38;;
43905;SDS011;29564;46.622;13.818;2024-01-30T04:05:47;2.58;;;1.00;;
43905;SDS011;29564;46.622;13.818;2024-01-30T04:06:49;2.25;;;1.45;;
43905;SDS011;29564;46.622;13.818;2024-01-30T04:07:51;2.80;;;0.73;;
43905;SDS011;29564;46.622;13.818;2024-01-30T04:08:52;1.00;;;0.93;;
43905;SDS011;29564;46.622;13.818;2024-01-30T04:09:54;1.42;;;0.85;;
43905;SDS011;29564;46.622;13.818;2024-01-30T04:10:56;1.63;;;1.50;;
43905;SDS011;29564;46.622;13.818;2024-01-30T04:12:01;1.60;;;1.50;;
43905;SDS011;29564;46.622;13.818;2024-01-30T04:13:03;1.80;;;0.90;;
43905;SDS011;29564;46.622;13.818;2024-01-30T04:14:05;1.40;;;1.30;;
43905;SDS011;29564;46.622;13.818;2024-01-30T04:15:07;1.83;;;1.25;;
43905;SDS011;29564;46.622;13.818;2024-01-30T04:16:18;1.20;;;1.10;;
43905;SDS011;29564;46.622;13.818;2024-01-30T04:17:20;1.58;;;1.13;;
43905;SDS011;29564;46.622;13.818;2024-01-30T04:18:22;1.63;;;1.38;;
43905;SDS011;29564;46.622;13.818;2024-01-30T04:19:24;2.17;;;1.45;;
43905;SDS011;29564;46.622;13.818;2024-01-30T04:20:26;2.20;;;1.02;;
43905;SDS011;29564;46.622;13.818;2024-01-30T04:21:28;1.08;;;1.05;;
43905;SDS011;29564;46.622;13.818;2024-01-30T04:22:30;2.83;;;2.25;;
43905;SDS011;29564;46.622;13.818;2024-01-30T04:23:32;0.70;;;0.70;;
43905;SDS011;29564;46.622;13.818;2024-01-30T04:24:34;1.55;;;1.40;;
43905;SDS011;29564;46.622;13.818;2024-01-30T04:25:36;1.17;;;1.15;;
43905;SDS011;29564;46.622;13.818;2024-01-30T04:26:37;2.95;;;1.55;;
43905;SDS011;29564;46.622;13.818;2024-01-30T04:27:39;1.88;;;1.15;;
43905;SDS011;29564;46.622;13.818;2024-01-30T04:28:41;1.60;;;1.40;;
43905;SDS011;29564;46.622;13.818;2024-01-30T04:29:43;1.73;;;1.30;;
43905;SDS011;29564;46.622;13.818;2024-01-30T04:30:45;1.20;;;1.00;;
43905;SDS011;29564;46.622;13.818;2024-01-30T04:31:47;1.58;;;1.25;;
43905;SDS011;29564;46.622;13.818;2024-01-30T04:32:49;1.10;;;1.05;;
43905;SDS011;29564;46.622;13.818;2024-01-30T04:33:51;0.85;;;0.75;;
43905;SDS011;29564;46.622;13.818;2024-01-30T04:34:52;1.17;;;0.98;;
43905;SDS011;29564;46.622;13.818;2024-01-30T04:35:54;4.80;;;1.40;;
43905;SDS011;29564;46.622;13.818;2024-01-30T04:36:56;3.17;;;2.00;;
43905;SDS011;29564;46.622;13.818;2024-01-30T04:37:58;2.10;;;1.52;;
43905;SDS011;29564;46.622;13.818;2024-01-30T04:39:00;3.35;;;1.33;;
43905;SDS011;29564;46.622;13.818;2024-01-30T04:40:02;2.38;;;1.38;;
43905;SDS011;29564;46.622;13.818;2024-01-30T04:41:04;1.75;;;1.02;;
43905;SDS011;29564;46.622;13.818;2024-01-30T04:42:06;1.40;;;1.10;;
43905;SDS011;29564;46.622;13.818;2024-01-30T04:43:08;1.23;;;0.98;;
43905;SDS011;29564;46.622;13.818;2024-01-30T04:44:10;2.38;;;0.98;;
43905;SDS011;29564;46.622;13.818;2024-01-30T04:45:12;1.80;;;1.17;;
43905;SDS011;29564;46.622;13.818;2024-01-30T04:46:14;4.05;;;1.60;;
43905;SDS011;29564;46.622;13.818;2024-01-30T04:47:16;3.53;;;1.40;;
43905;SDS011;29564;46.622;13.818;2024-01-30T04:48:18;1.83;;;1.05;;
43905;SDS011;29564;46.622;13.818;2024-01-30T04:49:20;1.45;;;0.90;;
43905;SDS011;29564;46.622;13.818;2024-01-30T04:50:22;1.20;;;1.10;;
43905;SDS011;29564;46.622;13.818;2024-01-30T04:51:24;0.73;;;0.73;;
43905;SDS011;29564;46.622;13.818;2024-01-30T04:52:26;5.35;;;1.52;;
43905;SDS011;29564;46.622;13.818;2024-01-30T04:53:29;4.63;;;2.38;;
43905;SDS011;29564;46.622;13.818;2024-01-30T04:54:31;2.47;;;1.00;;
43905;SDS011;29564;46.622;13.818;2024-01-30T04:55:34;1.88;;;1.45;;
43905;SDS011;29564;46.622;13.818;2024-01-30T04:56:37;2.33;;;1.58;;
43905;SDS011;29564;46.622;13.818;2024-01-30T04:57:40;1.00;;;0.95;;
43905;SDS011;29564;46.622;13.818;2024-01-30T04:58:42;4.15;;;1.70;;
43905;SDS011;29564;46.622;13.818;2024-01-30T04:59:44;1.33;;;1.20;;
43905;SDS011;29564;46.622;13.818;2024-01-30T05:00:46;1.65;;;1.17;;
43905;SDS011;29564;46.622;13.818;2024-01-30T05:01:52;1.17;;;1.10;;
43905;SDS011;29564;46.622;13.818;2024-01-30T05:02:56;1.52;;;0.82;;
43905;SDS011;29564;46.622;13.818;2024-01-30T05:05:00;2.33;;;1.27;;
43905;SDS011;29564;46.622;13.818;2024-01-30T05:06:03;6.00;;;1.80;;
43905;SDS011;29564;46.622;13.818;2024-01-30T05:07:05;1.88;;;1.75;;
43905;SDS011;29564;46.622;13.818;2024-01-30T05:08:07;4.28;;;1.33;;
43905;SDS011;29564;46.622;13.818;2024-01-30T05:09:09;1.23;;;1.02;;
43905;SDS011;29564;46.622;13.818;2024-01-30T05:10:10;1.30;;;1.10;;
43905;SDS011;29564;46.622;13.818;2024-01-30T05:11:12;5.40;;;1.63;;
43905;SDS011;29564;46.622;13.818;2024-01-30T05:12:14;6.13;;;1.52;;
43905;SDS011;29564;46.622;13.818;2024-01-30T05:13:16;2.00;;;1.83;;
43905;SDS011;29564;46.622;13.818;2024-01-30T05:14:18;2.50;;;1.60;;
43905;SDS011;29564;46.622;13.818;2024-01-30T05:15:20;3.35;;;1.98;;
43905;SDS011;29564;46.622;13.818;2024-01-30T05:16:22;2.40;;;1.70;;
43905;SDS011;29564;46.622;13.818;2024-01-30T05:17:24;2.53;;;0.90;;
43905;SDS011;29564;46.622;13.818;2024-01-30T05:18:26;2.30;;;1.10;;
43905;SDS011;29564;46.622;13.818;2024-01-30T05:19:28;1.77;;;1.15;;
43905;SDS011;29564;46.622;13.818;2024-01-30T05:20:30;1.88;;;1.42;;
43905;SDS011;29564;46.622;13.818;2024-01-30T05:21:31;1.20;;;0.98;;
43905;SDS011;29564;46.622;13.818;2024-01-30T05:22:34;1.55;;;1.45;;
43905;SDS011;29564;46.622;13.818;2024-01-30T05:23:35;1.25;;;1.08;;
43905;SDS011;29564;46.622;13.818;2024-01-30T05:24:37;2.67;;;1.60;;
43905;SDS011;29564;46.622;13.818;2024-01-30T05:25:39;1.00;;;1.00;;
43905;SDS011;29564;46.622;13.818;2024-01-30T05:26:41;2.63;;;1.38;;
43905;SDS011;29564;46.622;13.818;2024-01-30T05:27:43;2.83;;;1.42;;
43905;SDS011;29564;46.622;13.818;2024-01-30T05:28:45;1.65;;;1.55;;
43905;SDS011;29564;46.622;13.818;2024-01-30T05:29:47;2.55;;;1.45;;
43905;SDS011;29564;46.622;13.818;2024-01-30T05:30:49;11.65;;;1.67;;
43905;SDS011;29564;46.622;13.818;2024-01-30T05:31:51;2.55;;;1.75;;
43905;SDS011;29564;46.622;13.818;2024-01-30T05:32:52;3.28;;;1.77;;
43905;SDS011;29564;46.622;13.818;2024-01-30T05:33:54;3.85;;;2.30;;
43905;SDS011;29564;46.622;13.818;2024-01-30T05:34:56;1.38;;;1.08;;
43905;SDS011;29564;46.622;13.818;2024-01-30T05:35:58;3.15;;;1.58;;
43905;SDS011;29564;46.622;13.818;2024-01-30T05:37:00;2.85;;;1.52;;
43905;SDS011;29564;46.622;13.818;2024-01-30T05:38:02;3.85;;;1.65;;
43905;SDS011;29564;46.622;13.818;2024-01-30T05:39:03;4.78;;;2.35;;
43905;SDS011;29564;46.622;13.818;2024-01-30T05:40:08;1.95;;;1.85;;
43905;SDS011;29564;46.622;13.818;2024-01-30T05:41:10;4.70;;;2.30;;
43905;SDS011;29564;46.622;13.818;2024-01-30T05:42:14;2.67;;;1.77;;
43905;SDS011;29564;46.622;13.818;2024-01-30T05:43:26;2.50;;;1.55;;
43905;SDS011;29564;46.622;13.818;2024-01-30T05:44:27;1.83;;;1.67;;
43905;SDS011;29564;46.622;13.818;2024-01-30T05:45:29;5.38;;;2.00;;
43905;SDS011;29564;46.622;13.818;2024-01-30T05:46:31;3.42;;;2.00;;
43905;SDS011;29564;46.622;13.818;2024-01-30T05:47:32;3.75;;;1.50;;
43905;SDS011;29564;46.622;13.818;2024-01-30T05:48:34;2.63;;;1.67;;
43905;SDS011;29564;46.622;13.818;2024-01-30T05:49:36;2.40;;;1.23;;
43905;SDS011;29564;46.622;13.818;2024-01-30T05:50:37;1.38;;;1.35;;
43905;SDS011;29564;46.622;13.818;2024-01-30T05:51:39;4.65;;;1.85;;
43905;SDS011;29564;46.622;13.818;2024-01-30T05:52:41;2.85;;;1.42;;
43905;SDS011;29564;46.622;13.818;2024-01-30T05:53:42;8.50;;;2.20;;
43905;SDS011;29564;46.622;13.818;2024-01-30T05:54:44;5.03;;;1.83;;
43905;SDS011;29564;46.622;13.818;2024-01-30T05:55:46;4.18;;;2.45;;
43905;SDS011;29564;46.622;13.818;2024-01-30T05:56:47;5.43;;;2.50;;
43905;SDS011;29564;46.622;13.818;2024-01-30T05:57:49;3.92;;;2.35;;
43905;SDS011;29564;46.622;13.818;2024-01-30T05:58:52;4.07;;;1.55;;
43905;SDS011;29564;46.622;13.818;2024-01-30T05:59:54;2.83;;;2.45;;
43905;SDS011;29564;46.622;13.818;2024-01-30T06:00:56;6.45;;;4.10;;
43905;SDS011;29564;46.622;13.818;2024-01-30T06:01:58;4.05;;;1.80;;
43905;SDS011;29564;46.622;13.818;2024-01-30T06:03:00;5.75;;;1.88;;
43905;SDS011;29564;46.622;13.818;2024-01-30T06:04:01;5.13;;;2.38;;
43905;SDS011;29564;46.622;13.818;2024-01-30T06:05:03;3.85;;;2.03;;
43905;SDS011;29564;46.622;13.818;2024-01-30T06:06:05;2.10;;;1.77;;
43905;SDS011;29564;46.622;13.818;2024-01-30T06:07:06;2.55;;;2.33;;
43905;SDS011;29564;46.622;13.818;2024-01-30T06:08:08;1.55;;;1.08;;
43905;SDS011;29564;46.622;13.818;2024-01-30T06:09:10;4.55;;;2.72;;
43905;SDS011;29564;46.622;13.818;2024-01-30T06:10:13;3.38;;;2.03;;
43905;SDS011;29564;46.622;13.818;2024-01-30T06:11:15;4.30;;;2.30;;
43905;SDS011;29564;46.622;13.818;2024-01-30T06:12:16;4.35;;;3.17;;
43905;SDS011;29564;46.622;13.818;2024-01-30T06:13:18;1.75;;;1.65;;
43905;SDS011;29564;46.622;13.818;2024-01-30T06:14:19;6.07;;;1.60;;
43905;SDS011;29564;46.622;13.818;2024-01-30T06:15:21;7.22;;;3.25;;
43905;SDS011;29564;46.622;13.818;2024-01-30T06:16:23;13.20;;;4.68;;
43905;SDS011;29564;46.622;13.818;2024-01-30T06:17:24;10.13;;;4.53;;
43905;SDS011;29564;46.622;13.818;2024-01-30T06:18:26;19.38;;;4.10;;
43905;SDS011;29564;46.622;13.818;2024-01-30T06:19:29;16.15;;;7.82;;
43905;SDS011;29564;46.622;13.818;2024-01-30T06:20:31;4.55;;;3.30;;
43905;SDS011;29564;46.622;13.818;2024-01-30T06:21:33;3.88;;;2.75;;
43905;SDS011;29564;46.622;13.818;2024-01-30T06:22:37;5.20;;;2.50;;
43905;SDS011;29564;46.622;13.818;2024-01-30T06:23:38;1.92;;;1.73;;